Terminal Aerodrome Forecast
Issued by NWS

Home | Current Version | Previous Version | Text Only | Print | Product List | Glossary On
Versions: 1 2 3 4 5 6 7 8 9 10 11 12
875
FTUS45 KPIH 041120
TAFSUN
TAF
KSUN 041120Z 0412/0512 31007KT P6SM FEW200
     FM041700 16010KT P6SM SCT060 BKN180
     FM050300 30009KT P6SM VCSH SCT080 BKN120
      AMD LTD TO CLD VIS AND WIND TIL 041400=

USA.gov is the U.S. government's official web portal to all federal, state and local government web resources and services.